Oceanis — SVBC9 — position and weather

sailwx.info

Track history (hours):
 
Tides and Currents Weather Stations Pressure Air Temp Water Temp Dewpoint Dewpoint Depression Visibility Wind Speed Wind Dir Waves Ship Positions

Oceanis

Last reported at 2016-Sep-06 22:26 UTC. Time now 2016-Sep-28 22:11 UTC.
Position S 28°46' E 032°46'.
Warning: this ship's position is 21 days out of date.

Length 330 m; draft 22 m.

Type: Tanker. MMSI: 241089000.

Date/timePositionNaut miles runAvg speedWind from/ knotsBaromVisibWave heightAir tempDewpointWater temp
2016-Sep-06 22:26S 28°46' E 032°46'6010.0
2016-Sep-06 16:25S 29°26' E 031°55'8 9.0
2016-Sep-06 15:33S 29°32' E 031°49'9 9.4
2016-Sep-06 14:33S 29°38' E 031°41'1211.7
2016-Sep-06 13:33S 29°46' E 031°31'1212.1
2016-Sep-06 12:33S 29°54' E 031°21'7 7.2
2016-Sep-06 11:33S 29°58' E 031°14'3 2.8
2016-Sep-06 10:34S 29°59' E 031°11'4 3.7
2016-Sep-06 09:33S 30°01' E 031°08'7 6.5
2016-Sep-06 08:33S 30°07' E 031°05'6 6.2
2016-Sep-06 07:33S 30°13' E 031°03'8 8.4
2016-Sep-06 06:33S 30°21' E 030°59'  
Track history (hours):
 
Tides and Currents Weather Stations Pressure Air Temp Water Temp Dewpoint Dewpoint Depression Visibility Wind Speed Wind Dir Waves Ship Positions

Oceanis

Last reported at 2016-Sep-06 22:26 UTC. Time now 2016-Sep-28 22:11 UTC.
Position S 28°46' E 032°46'.
Warning: this ship's position is 21 days out of date.

Length 330 m; draft 22 m.

Type: Tanker. MMSI: 241089000.

Date/timePositionNaut miles runAvg speedWind from/ knotsBaromVisibWave heightAir tempDewpointWater temp
2016-Sep-06 22:26S 28°46' E 032°46'6010.0
2016-Sep-06 16:25S 29°26' E 031°55'8 9.0
2016-Sep-06 15:33S 29°32' E 031°49'9 9.4
2016-Sep-06 14:33S 29°38' E 031°41'1211.7
2016-Sep-06 13:33S 29°46' E 031°31'1212.1
2016-Sep-06 12:33S 29°54' E 031°21'7 7.2
2016-Sep-06 11:33S 29°58' E 031°14'3 2.8
2016-Sep-06 10:34S 29°59' E 031°11'4 3.7
2016-Sep-06 09:33S 30°01' E 031°08'7 6.5
2016-Sep-06 08:33S 30°07' E 031°05'6 6.2
2016-Sep-06 07:33S 30°13' E 031°03'8 8.4
2016-Sep-06 06:33S 30°21' E 030°59'  

Dump ship's entire track history